MyTimes logo

TIMES

Webb Imagery

30/01/2010
Channel Challenge
550m Swim / 2.0km Run

(Click on competitor name to view personalised results)

Name
Race #
Category
Time
(h:mm:ss)
Avg Speed
km/hr
OAll
Place
Cat
Place
RHODES Jamie#96Senior Male0:11:01"13.9 " 11
SCHUSTER Brent#126Senior Male0:11:03"13.8 " 22
HALVERSON Gareth#252Senior Male0:11:06"13.8 " 33
SMITH Ryan#136Senior Male0:11:08"13.7 " 44
HUGGETT Jamie#258Senior Male0:11:11"13.7 " 55
WALPOLE Stuart#204Senior Male0:11:45"13.0 " 66
ROWE Mark#53Senior Male0:12:08"12.6 " 77
KIBBY Mitchell#52Senior Male0:12:14"12.5 " 88
AITKEN Holly#398Senior Female0:12:18"12.4 " 91
BUTLER James#612Junior Male0:12:18"12.4 " 101
KAY Richard#231Senior Male0:12:19"12.4 " 119
CLAYTON Elise#417Senior Female0:12:20"12.4 " 122
BUSCHKWEHL Nathan#744Junior Male0:12:20"12.4 " 132
BATT Corey#606Junior Male0:12:34"12.2 " 143
GUILLE Tim#1Senior Male0:12:45"12.0 " 1510
CHAPMAN Naish#187Senior Male0:12:49"11.9 " 1611
PLANT Luke#146Senior Male0:12:52"11.9 " 1712
FRANKS Elly#515Senior Female0:12:54"11.9 " 183
LEWIS Mitch#768Junior Male0:13:01"11.8 " 194
WACHTER Aurel#64440-49 Male0:13:04"11.7 " 201
ANDREW Chris#65140-49 Male0:13:07"11.7 " 212
DEVESON Grace#348Junior Female0:13:09"11.6 " 221
CONSTANCE Ryan#176Senior Male0:13:10"11.6 " 2313
BENNETT James#760Junior Male0:13:12"11.6 " 245
FLEISNER Rob#678Male 50+0:13:16"11.5 " 251
BUGG Matthew#143Senior Male0:13:17"11.5 " 2614
CLARKSON Mack#211Senior Male0:13:19"11.5 " 2715
PHILLIPS Tyler#156Senior Male0:13:22"11.4 " 2816
REID Penny#450Senior Female0:13:26"11.4 " 294
KUYPER James#244Senior Male0:13:28"11.4 " 3017
TILEY Justin#273Senior Male0:13:41"11.2 " 3118
GOWAN Mike#84Senior Male0:13:42"11.2 " 3219
SQUIRES Richard#51Senior Male0:13:43"11.2 " 3320
COOT'E Millicent#343Junior Female0:13:44"11.1 " 342
READ Andrew#610Junior Male0:13:45"11.1 " 356
BILL Greg#75440-49 Male0:13:46"11.1 " 363
JUDD Alex#604Junior Male0:13:52"11.0 " 377
DRISCOLL Ben#48Senior Male0:13:55"11.0 " 3821
GALBRAITH Dana#684Male 50+0:13:55"11.0 " 392
BROWN Christian#180Senior Male0:14:01"10.9 " 4022
ROLLAND Thierry#75240-49 Male0:14:01"10.9 " 414
NEAL Dennis#73540-49 Male0:14:01"10.9 " 425
BUTT Chloe#361Senior Female0:14:02"10.9 " 435
CORBETT Jim#64540-49 Male0:14:02"10.9 " 446
BUSCHKUEHL David#74340-49 Male0:14:06"10.9 " 457
SOMMERVILLE Barny#91Senior Male0:14:09"10.8 " 4623
BLAKE Darren#214Senior Male0:14:10"10.8 " 4724
ZERVAAS Steph#521Senior Female0:14:11"10.8 " 486
CROFT Greg#73840-49 Male0:14:13"10.8 " 498
JENNER Steven#89Senior Male0:14:14"10.7 " 5025
CONNELL Patrick#749Junior Male0:14:15"10.7 " 518
RITTER Andrew#57Senior Male0:14:16"10.7 " 5226
SULLIVAN Matt#607Junior Male0:14:17"10.7 " 539
YUSKO Bill#692Male 50+0:14:18"10.7 " 543
BREDIN Victor#54Senior Male0:14:22"10.6 " 5527
WHITE David#72240-49 Male0:14:22"10.6 " 569
ESSING Wayne#763Male 50+0:14:26"10.6 " 574
WALLER Mark#62340-49 Male0:14:27"10.6 " 5810
EVANS Brad#76640-49 Male0:14:27"10.6 " 5911
CLINTON Bradley#256Senior Male0:14:29"10.6 " 6028
CAUNE Andrew#192Senior Male0:14:33"10.5 " 6129
FOSTER Luke#71Senior Male0:14:34"10.5 " 6230
THOMAS Andrew#76540-49 Male0:14:34"10.5 " 6312
CHURCHILL Trent#215Senior Male0:14:37"10.5 " 6431
NEWTON Rodney#61740-49 Male0:14:37"10.5 " 6513
CLEVERSLEY Daniel#217Senior Male0:14:39"10.4 " 6632
WATERSON Michael#195Senior Female0:14:39"10.4 " 677
RINGROSE Glyndon#265Senior Male0:14:46"10.4 " 6833
HUGHES Jed#12Senior Male0:14:47"10.3 " 6934
BUCKLAND Matthew#162Senior Male0:14:49"10.3 " 7035
AGHEAD Bevin#774Junior Male0:14:50"10.3 " 7110
HAWKING Shem#210Senior Male0:14:51"10.3 " 7236
MAYERS Stuart#241Senior Male0:14:52"10.3 " 7337
KHOURY Matthew#249Senior Male0:14:54"10.3 " 7438
LANGLEY Mark#603Junior Male0:14:54"10.3 " 7511
HADLEY Alister#741Junior Male0:14:56"10.2 " 7612
PALMER Tiger#734Male 50+0:14:57"10.2 " 775
FROUDE David#120Senior Male0:14:58"10.2 " 7839
COGHLAN Derek#154Senior Male0:15:01"10.2 " 7940
WATSON Russell#71640-49 Male0:15:03"10.2 " 8014
EUSTICE Stuart#260Senior Male0:15:04"10.2 " 8141
WHITTEN Sean#605Junior Male0:15:09"10.1 " 8213
HUTCHINSON Richard#238Senior Male0:15:10"10.1 " 8342
SPACKMAN David#39Senior Male0:15:11"10.1 " 8443
TOSH Liz#446Senior Female0:15:11"10.1 " 858
WEBB Danni#510Senior Female0:15:11"10.1 " 869
HOMER Ivan#64740-49 Male0:15:11"10.1 " 8715
IRVING Stewart#77540-49 Male0:15:12"10.1 " 8816
LEACH Warrack#157Senior Male0:15:13"10.1 " 8944
HARRIS Mark#65340-49 Male0:15:13"10.1 " 9017
KELLY David#62640-49 Male0:15:15"10.0 " 9118
STINEAR Tim#184Senior Male0:15:16"10.0 " 9245
MONAGHAN Matt#122Senior Male0:15:17"10.0 " 9346
BOND Marcus#67Senior Male0:15:17"10.0 " 9447
BOURKE Chris#17Senior Male0:15:17"10.0 " 9548
BUTLER Clare#352Junior Female0:15:17"10.0 " 963
CROFT Baden#737Junior Male0:15:17"10.0 " 9714
COLLINS Matthew#15Senior Male0:15:22"10.0 " 9849
DISTON Ashlee#433Junior Female0:15:24"9.9 " 994
KENNEDY Kaely#350Junior Female0:15:25"9.9 " 1005
GOUGH Charlee#340Junior Female0:15:26"9.9 " 1016
PALMER Dan The Ma#173Senior Male0:15:27"9.9 " 10250
SAUNDERS Prue#520Senior Female0:15:31"9.9 " 10310
BAILEY Adam#193Senior Male0:15:33"9.8 " 10451
CONNELL Michael#75040-49 Male0:15:33"9.8 " 10519
DAVIE Krystal#347Junior Female0:15:36"9.8 " 1067
BYRNE Stephen#746Male 50+0:15:37"9.8 " 1076
WILLIAMSON Tim#203Senior Male0:15:38"9.8 " 10852
O'MEARA Amy#459Senior Female0:15:38"9.8 " 10911
ESSING Jacqui#503Junior Female0:15:38"9.8 " 1108
MORRISON Mark#62940-49 Male0:15:38"9.8 " 11120
AITKEN Ian#64340-49 Male0:15:41"9.8 " 11221
BUTTIFANT David#161Senior Male0:15:42"9.7 " 11353
GLASBY Camilla#427Senior Female0:15:42"9.7 " 11412
O'CONNELL Sarah#369Senior Female0:15:42"9.7 " 11513
LAING Trent#194Senior Female0:15:43"9.7 " 11614
CHISHOLM Andy#64940-49 Male0:15:43"9.7 " 11722
BOURKE Michael#32Senior Male0:15:44"9.7 " 11854
DUNCAN Michael P#36Senior Male0:15:45"9.7 " 11955
CANN Lara#388Senior Female0:15:45"9.7 " 12015
NICHOLL Trent#166Senior Male0:15:47"9.7 " 12156
BAYLEY Matthew#139Senior Male0:15:47"9.7 " 12257
MILLER Todd#257Senior Male0:15:50"9.7 " 12358
MANN Adrian#196Senior Male0:15:51"9.7 " 12459
CLARK Ed#199Senior Male0:15:52"9.6 " 12560
STEWART Kimberley#378Senior Female0:15:53"9.6 " 12616
TYLER Mike#669Male 50+0:15:53"9.6 " 1277
COLLINS John#103Senior Male0:15:54"9.6 " 12861
CLARKSON Anna#487Senior Female0:15:54"9.6 " 12917
RIELLY Debbie#45340-49 Female0:15:54"9.6 " 1301
DESSENT Tiger#63440-49 Male0:15:54"9.6 " 13123
WIGHT Chris#6Senior Male0:15:55"9.6 " 13262
COLMAN Andrew#23Senior Male0:15:55"9.6 " 13363
IRVING Nathaniel#776Junior Male0:15:56"9.6 " 13415
LYNCH Daniel#153Senior Male0:15:57"9.6 " 13564
BROWN Stewart#56Senior Male0:15:59"9.6 " 13665
LEMAN Nick#72Senior Male0:16:00"9.6 " 13766
GUPPY Sasha#467Junior Female0:16:00"9.6 " 1389
GRAHAM Andrew#253Senior Male0:16:01"9.6 " 13967
MATTHEWS Jack#43Senior Male0:16:02"9.5 " 14068
WINTLE Paul#250Senior Male0:16:03"9.5 " 14169
WILKINS Shaun#209Senior Male0:16:04"9.5 " 14270
HARRISON Hamish#219Senior Male0:16:04"9.5 " 14371
VITIRITTI Karina#490Senior Female0:16:06"9.5 " 14418
ALDERSON Allan#736Male 50+0:16:07"9.5 " 1458
DAVIE Angie#31740-49 Female0:16:09"9.5 " 1462
READ John#38Senior Male0:16:10"9.5 " 14772
PETERSEN Marnie#342Junior Female0:16:11"9.5 " 14810
BULLER Luke#115Senior Male0:16:12"9.4 " 14973
HARRIS Michelle#496Senior Female0:16:12"9.4 " 15019
BARTLETT Julian#237Senior Male0:16:13"9.4 " 15174
CRAMER Chris#61Senior Male0:16:14"9.4 " 15275
MOORE Hayden#134Senior Male0:16:14"9.4 " 15376
JUDD Gary#665Male 50+0:16:14"9.4 " 1549
DALLINGER Chris#271Senior Male0:16:15"9.4 " 15577
MCFEE Andy#70Senior Male0:16:15"9.4 " 15678
BEHRSIN John#764Male 50+0:16:15"9.4 " 15710
VESSEY Glenn#63540-49 Male0:16:16"9.4 " 15824
SMITH Aaron#44Senior Male0:16:19"9.4 " 15979
DRISCOLL Melanie#404Senior Female0:16:21"9.4 " 16020
BRADEN Michael#69540-49 Male0:16:21"9.4 " 16125
MURPHY Gary#4Senior Male0:16:22"9.3 " 16280
O'DONOHUE Jacob#609Junior Male0:16:23"9.3 " 16316
SIERAKOWSKI Sean#29Senior Male0:16:25"9.3 " 16481
LEVERSHA David#660Male 50+0:16:26"9.3 " 16511
HOMER Jack#608Junior Male0:16:28"9.3 " 16617
PRYOR Anthony#242Senior Male0:16:30"9.3 " 16782
MAY Kevin#21Senior Male0:16:31"9.3 " 16883
WOOD Richard#201Senior Male0:16:32"9.3 " 16984
HORSBURGH Tom#170Senior Male0:16:33"9.2 " 17085
MCCARROLL Matt#63840-49 Male0:16:33"9.2 " 17126
MILLER Michael#64140-49 Male0:16:34"9.2 " 17227
BURT Melissa#476Senior Female0:16:35"9.2 " 17321
HUMPHRIS Stephen#68Senior Male0:16:36"9.2 " 17486
JACKMAN James#58Senior Male0:16:37"9.2 " 17587
DARKER Sarah#366Senior Female0:16:37"9.2 " 17622
HASLEM Sam#182Senior Male0:16:38"9.2 " 17788
HERNADI Tim#205Senior Male0:16:38"9.2 " 17889
HAYES Albert#62240-49 Male0:16:38"9.2 " 17928
TUDOR David#228Senior Male0:16:39"9.2 " 18090
KISS Pam#457Female 50+0:16:41"9.2 " 1811
WHITLA James#61440-49 Male0:16:41"9.2 " 18229
DYKES Chris#26Senior Male0:16:44"9.1 " 18391
TOOHEY Zac#47Senior Male0:16:44"9.1 " 18492
BORN Daniel#106Senior Male0:16:45"9.1 " 18593
KIRBY Phillip#72440-49 Male0:16:47"9.1 " 18630
WILLOCKS Matthew#135Senior Male0:16:48"9.1 " 18794
LEA Michael#75Senior Male0:16:49"9.1 " 18895
POTOCNIK Harry#602Junior Male0:16:49"9.1 " 18918
JAKOBI Dean#113Senior Male0:16:50"9.1 " 19096
MATTHEWS Aaron#123Senior Male0:16:51"9.1 " 19197
WOOTING James#75340-49 Male0:16:51"9.1 " 19231
SHANNON Troy#190Senior Male0:16:53"9.1 " 19398
CROWE Susie#483Senior Female0:16:53"9.1 " 19423
JACKSON Seamer#699Junior Male0:16:53"9.1 " 19519
DAFF Geoff#76140-49 Male0:16:54"9.1 " 19632
GRIFFITHS Kylie#30840-49 Female0:16:55"9.0 " 1973
GOWAN Natalie#405Senior Female0:16:56"9.0 " 19824
ANDREOLA Ryan#698Junior Male0:16:56"9.0 " 19920
ROBINSON Peter#127Senior Male0:16:57"9.0 " 20099
DRYDEN Jack#747Junior Male0:16:58"9.0 " 20121
STEVENS Jason#11Senior Male0:16:59"9.0 " 202100
VAN OOSTEN Yolande#30640-49 Female0:17:00"9.0 " 2034
MACLARN Lynne#32540-49 Female0:17:01"9.0 " 2045
WRIGHT Ashley#60Senior Male0:17:02"9.0 " 205101
KISS Shannyn#458Senior Female0:17:02"9.0 " 20625
MORPHET James#155Senior Male0:17:03"9.0 " 207102
DE JONG Darren#28Senior Male0:17:03"9.0 " 208103
BUTTERWORTH Karri#463Senior Female0:17:03"9.0 " 20926
WOOD Anthony#141Senior Male0:17:04"9.0 " 210104
SPENCER Justin#261Senior Male0:17:04"9.0 " 211105
BOURKE Steve#117Senior Male0:17:07"8.9 " 212106
ALDER Sarah#374Senior Female0:17:08"8.9 " 21327
FRANSELLA Eric#63Senior Male0:17:09"8.9 " 214107
ALDER Edward#33Senior Male0:17:09"8.9 " 215108
LEA Steven#76Senior Male0:17:10"8.9 " 216109
DALVEAN Trenton#50Senior Male0:17:10"8.9 " 217110
KOOTE Shannon#163Senior Male0:17:10"8.9 " 218111
GARGAN Bridget#506Senior Female0:17:10"8.9 " 21928
DAVIE Jasmine#346Junior Female0:17:10"8.9 " 22011
CHARALAMBOUS Mark#169Senior Male0:17:11"8.9 " 221112
LOVITT Rod#188Senior Male0:17:11"8.9 " 222113
BEHRSIN Kristina#504Senior Female0:17:11"8.9 " 22329
WEINER Marc#72140-49 Male0:17:11"8.9 " 22433
BORN Christian#611Junior Male0:17:13"8.9 " 22522
SMITH James#142Senior Male0:17:14"8.9 " 226114
KAYE-HELMOT Georgia#449Junior Female0:17:14"8.9 " 22712
MC DONALD Anges#232Senior Male0:17:16"8.9 " 228115
POTOCNIK Lily#339Junior Female0:17:16"8.9 " 22913
TURNER Peter#677Male 50+0:17:16"8.9 " 23012
WALTON Matt#175Senior Male0:17:19"8.8 " 231116
PARSONS Kyle#726Junior Male0:17:19"8.8 " 23223
MASTERMAN-SMITH Adrian#274Senior Male0:17:20"8.8 " 233117
WEBSTER Ashton#110Senior Male0:17:20"8.8 " 234118
PARSONS Oliver#727Junior Male0:17:20"8.8 " 23524
LUCK Jarrod#64Senior Male0:17:21"8.8 " 236119
DEVERS Ashley#174Senior Male0:17:21"8.8 " 237120
WOODHOUSE Nigel#149Senior Male0:17:21"8.8 " 238121
LYNCH Emma#462Senior Female0:17:21"8.8 " 23930
SMITH Liam#751Junior Male0:17:21"8.8 " 24025
SAUNDERS Allan#659Male 50+0:17:21"8.8 " 24113
ALDRED John#270Senior Male0:17:22"8.8 " 242122
TIPPING Joel#109Senior Male0:17:23"8.8 " 243123
WOODWARD Nick#254Senior Male0:17:23"8.8 " 244124
LEA Trevor#657Male 50+0:17:23"8.8 " 24514
TOOHEY Bart#111Senior Male0:17:24"8.8 " 246125
HINGST Andrew#172Senior Male0:17:25"8.8 " 247126
GILL Jack#97Senior Male0:17:25"8.8 " 248127
WILSON David#78Senior Male0:17:26"8.8 " 249128
MCDONALD Hugh#118Senior Male0:17:26"8.8 " 250129
MARSHALL Luke#164Senior Male0:17:27"8.8 " 251130
PRYOR Brendan#243Senior Male0:17:28"8.8 " 252131
CICCONE Joseph#762Junior Male0:17:28"8.8 " 25326
RINGROSE Paul#667Male 50+0:17:28"8.8 " 25415
DUNCAN Michael#41Senior Male0:17:29"8.8 " 255132
PIRRIE Nicholas#725Junior Male0:17:29"8.8 " 25627
SMITH Michael#259Senior Male0:17:31"8.7 " 257133
RUMBERG Michael#272Senior Male0:17:31"8.7 " 258134
CHARALAMBOUS Wacle#167Senior Male0:17:33"8.7 " 259135
LEVERSHA Lyn#330Female 50+0:17:33"8.7 " 2602
ROWE Joel#128Senior Male0:17:34"8.7 " 261136
MOFFATT Hayley#468Senior Female0:17:35"8.7 " 26231
JONES Mark#75840-49 Male0:17:35"8.7 " 26334
KOOLE/FRASER Jodie#408Senior Female0:17:36"8.7 " 26432
VERSTEGGE Leanne#495Senior Female0:17:36"8.7 " 26533
O'DONOHUE Mark#64840-49 Male0:17:36"8.7 " 26635
WINSTANLEY Benjamin#731Junior Male0:17:36"8.7 " 26728
DENNIS Benjamin#140Senior Male0:17:38"8.7 " 268137
MCCORMACK Neill#87Senior Male0:17:38"8.7 " 269138
RASMUSSEN Luke#124Senior Male0:17:39"8.7 " 270139
DOCHERTY Daniel#19Senior Male0:17:39"8.7 " 271140
MCKENZIE David#114Senior Male0:17:39"8.7 " 272141
DODD Jennifer#328Female 50+0:17:40"8.7 " 2733
LOGAN Justin#80Senior Male0:17:41"8.7 " 274142
MORGAN Briony#440Senior Female0:17:41"8.7 " 27534
WALTON Marcus#42Senior Male0:17:44"8.6 " 276143
HELLEMA Ben#98Senior Male0:17:45"8.6 " 277144
GEE Simon#49Senior Male0:17:45"8.6 " 278145
WATERSON David#206Senior Male0:17:46"8.6 " 279146
CAMERON Jane#30940-49 Female0:17:46"8.6 " 2806
BURKE Richard#137Senior Male0:17:47"8.6 " 281147
HARRIS Simone#479Junior Female0:17:47"8.6 " 28214
HENDERSON Matthew#25Senior Male0:17:49"8.6 " 283148
MERCER Steve#73940-49 Male0:17:50"8.6 " 28436
MILLER Kate#397Senior Female0:17:53"8.6 " 28535
WILLIS Jehi#22Senior Male0:17:54"8.5 " 286149
SHEEDY Anthony#65440-49 Male0:17:54"8.5 " 28737
NICHOLSON Peter#767Male 50+0:17:55"8.5 " 28816
MURTY Georgia#423Junior Female0:17:56"8.5 " 28915
PALMER Mike#171Senior Male0:17:57"8.5 " 290150
SMYTH John#59Senior Male0:17:58"8.5 " 291151
MAHON Debbi#428Senior Female0:17:58"8.5 " 29236
MURPHY Justin#236Senior Male0:17:59"8.5 " 293152
COUNSELL Sarah#372Senior Female0:17:59"8.5 " 29437
MANNING Simon#63640-49 Male0:17:59"8.5 " 29538
HARRIS Simon#230Senior Male0:18:00"8.5 " 296153
THURGOOD Jordan#226Senior Male0:18:00"8.5 " 297154
CLEMO Brad#18Senior Male0:18:01"8.5 " 298155
JAMES Alycia#518Senior Female0:18:01"8.5 " 29938
WINSTANLEY James#159Senior Male0:18:02"8.5 " 300156
WILLIAMS Lloyd#222Senior Male0:18:02"8.5 " 301157
BELL Ashlea#344Junior Female0:18:02"8.5 " 30216
CROSS Graham#673Male 50+0:18:02"8.5 " 30317
FISHER Kevin#72940-49 Male0:18:03"8.5 " 30439
COLDREY Travis#108Senior Male0:18:04"8.5 " 305158
BENJAMIN Sam#62740-49 Male0:18:04"8.5 " 30640
DUKES Jarrod#266Senior Male0:18:05"8.5 " 307159
O'CALLAGHAN James#160Senior Male0:18:06"8.5 " 308160
CRISPIN Bradley#227Senior Male0:18:07"8.4 " 309161
BAXTER Virginia#32240-49 Female0:18:07"8.4 " 3107
EMERY Mick#676Male 50+0:18:07"8.4 " 31118
CARSON Anthony#138Senior Male0:18:09"8.4 " 312162
HAYNE Wendy#442Senior Female0:18:09"8.4 " 31339
MCDADE Louise#30140-49 Female0:18:10"8.4 " 3148
CREAN Peter#656Male 50+0:18:13"8.4 " 31519
HOMER Fritzie#32040-49 Female0:18:15"8.4 " 3169
O'SHANNESSY Peter#658Male 50+0:18:15"8.4 " 31720
PEMBERTON Mark#239Senior Male0:18:16"8.4 " 318163
BURT Ainslee#475Senior Female0:18:17"8.4 " 31940
SZFITLI Justine#484Senior Female0:18:18"8.4 " 32041
FLEISNER Paul#671Male 50+0:18:20"8.3 " 32121
CHANDLER Mark Linds#133Senior Male0:18:21"8.3 " 322164
MC COY Tony#719Male 50+0:18:21"8.3 " 32322
TERRILL Emily#513Junior Female0:18:22"8.3 " 32417
MATTHEWS Robert#778Male 50+0:18:22"8.3 " 32523
DOWNWARD Clint#5Senior Male0:18:24"8.3 " 326165
RANSAN-ELLIOT Hedda#464Senior Female0:18:24"8.3 " 32742
CLARK Penny#418Senior Female0:18:25"8.3 " 32843
BURHOP Matthew#102Senior Male0:18:26"8.3 " 329166
WILLIAMS Dwayne#221Senior Male0:18:27"8.3 " 330167
KISLER Jenny#385Senior Female0:18:27"8.3 " 33144
WILLIAMS Ian#62540-49 Male0:18:27"8.3 " 33241
MULLER Dale#63340-49 Male0:18:28"8.3 " 33342
RAMAGE David#704Male 50+0:18:28"8.3 " 33424
ALDRED James#82Senior Male0:18:29"8.3 " 335168
BROWN Nathan#30Senior Male0:18:30"8.3 " 336169
MOELLERS Svenja#363Senior Female0:18:30"8.3 " 33745
BAILEY Annie#327Female 50+0:18:30"8.3 " 3384
MOSELEY Tessa#365Senior Female0:18:31"8.3 " 33946
JESSE Andrew#202Senior Male0:18:32"8.3 " 340170
DODDS Janine#46040-49 Female0:18:32"8.3 " 34110
PARKER Gavin#268Senior Male0:18:33"8.2 " 342171
STAFFORD Rachel#448Senior Female0:18:34"8.2 " 34347
BREAKSPEAR Tom#148Senior Male0:18:39"8.2 " 344172
YOUNG Lauren#394Senior Female0:18:39"8.2 " 34548
VELLIN Sarah#481Junior Female0:18:39"8.2 " 34618
NICHOLSON Garry#705Male 50+0:18:39"8.2 " 34725
COLLIS Dan#263Senior Male0:18:41"8.2 " 348173
TAYLOR Dean#178Senior Male0:18:42"8.2 " 349174
MAY Richard#77340-49 Male0:18:42"8.2 " 35043
WARD Adam#121Senior Male0:18:44"8.2 " 351175
JORDAN-HILL Lisa#375Senior Female0:18:44"8.2 " 35249
JENKIN Natalie#403Senior Female0:18:44"8.2 " 35350
SANTURINI Jarred#234Senior Male0:18:45"8.2 " 354176
REID Annie#46940-49 Female0:18:45"8.2 " 35511
BORN Timothy Ja#65040-49 Male0:18:45"8.2 " 35644
CARROLL Steven#151Senior Male0:18:49"8.1 " 357177
JONES Zach#759Junior Male0:18:49"8.1 " 35829
CASTWOOD Tim#144Senior Male0:18:50"8.1 " 359178
GEE David#73Senior Male0:18:50"8.1 " 360179
CHRISTENSEN Brent#85Senior Male0:18:52"8.1 " 361180
DOUGLAS Meaghan#345Junior Female0:18:55"8.1 " 36219
TURNER Bridget#447Junior Female0:18:56"8.1 " 36320
MULLETT Ben#267Senior Male0:18:58"8.1 " 364181
ALDER Kurt#220Senior Male0:18:58"8.1 " 365182
TAMBURO Alysia#485Senior Female0:18:58"8.1 " 36651
SUMMERFIELD Ben#197Senior Male0:18:59"8.1 " 367183
HIBBLE Jenny#332Female 50+0:18:59"8.1 " 3685
WILDISH Rob#72840-49 Male0:19:00"8.1 " 36945
PETERSON Scott#224Senior Male0:19:01"8.0 " 370184
ADAMS Simon#71340-49 Male0:19:01"8.0 " 37146
DIMITRIOU Scott#69Senior Male0:19:02"8.0 " 372185
USATOFF Taissa#387Senior Female0:19:03"8.0 " 37352
CHASTON Peter#668Male 50+0:19:03"8.0 " 37426
TYRELL Sarah#444Senior Female0:19:04"8.0 " 37553
LENNE Heath#20Senior Male0:19:05"8.0 " 376186
SMITH Alisha#402Senior Female0:19:05"8.0 " 37754
SCHILLACI Jannaka#455Senior Female0:19:05"8.0 " 37855
COLE Nick#71140-49 Male0:19:07"8.0 " 37947
MCBAIN Gabrielle#376Senior Female0:19:08"8.0 " 38056
DELGOS Jessie#381Senior Female0:19:08"8.0 " 38157
MOTT Adam#83Senior Male0:19:09"8.0 " 382187
SUNDERLAND Peter#717Male 50+0:19:11"8.0 " 38327
GANNON Danny#92Senior Male0:19:12"8.0 " 384188
ALDER Sarah#492Senior Female0:19:12"8.0 " 38558
PRYOR Rebecca#507Senior Female0:19:13"8.0 " 38659
BAULCH Liz#31540-49 Female0:19:14"8.0 " 38712
SCOTI Beth#517Junior Female0:19:15"7.9 " 38821
IRWIN Kerry Anne#43040-49 Female0:19:15"7.9 " 38913
ANTHONY Michael#62140-49 Male0:19:15"7.9 " 39048
GILLILAND Paula#399Senior Female0:19:16"7.9 " 39160
CONVERY Gemma#441Senior Female0:19:17"7.9 " 39261
SKIDMORE Peter Jame#706Male 50+0:19:17"7.9 " 39328
HAMILTON Lachlan#168Senior Male0:19:18"7.9 " 394189
MANNING John#152Senior Male0:19:19"7.9 " 395190
MIRAMS Steve#240Senior Male0:19:20"7.9 " 396191
HARBINSON Yvette#451Senior Female0:19:21"7.9 " 39762
MALONEY Lorna#371Senior Female0:19:26"7.9 " 39863
STELZER Hermann#697Male 50+0:19:26"7.9 " 39929
DAVIE Stacey#456Senior Female0:19:27"7.9 " 40064
KEOGH Peter#77740-49 Male0:19:27"7.9 " 40149
LONG Kirsten#454Senior Female0:19:28"7.9 " 40265
DAFF Jess#419Senior Female0:19:28"7.9 " 40366
RANDALL Brendan#74240-49 Male0:19:28"7.9 " 40450
WARD Nicholas#7Senior Male0:19:30"7.8 " 405192
BREAKSPEAR Samuel#147Senior Male0:19:30"7.8 " 406193
DITTY Samantha#389Senior Female0:19:30"7.8 " 40767
CLARK Bruce#62440-49 Male0:19:30"7.8 " 40851
TOOHEY Josh#46Senior Male0:19:31"7.8 " 409194
STEWART Jodie#396Senior Female0:19:31"7.8 " 41068
MORGAN Steve#212Senior Male0:19:32"7.8 " 411195
KENNEDY Lucy#354Senior Female0:19:32"7.8 " 41269
THOMSON-NASH Sue#31640-49 Female0:19:32"7.8 " 41314
MENTHA Aaron#248Senior Male0:19:34"7.8 " 414196
HOWGATE Stacey#438Senior Female0:19:34"7.8 " 41570
BIESBROEK Elise#373Senior Female0:19:34"7.8 " 41671
SCOTT Mitchell#269Senior Male0:19:35"7.8 " 417197
BROWN Alecia#477Senior Female0:19:36"7.8 " 41872
WINSTANLEY Colin#702Male 50+0:19:36"7.8 " 41930
TAYLOR Scott#177Senior Male0:19:37"7.8 " 420198
ROBERTS Christian#150Senior Male0:19:37"7.8 " 421199
OVER Travis#218Senior Male0:19:37"7.8 " 422200
MORRISON Kerry#336Female 50+0:19:38"7.8 " 4236
COLLISON Natasha#491Senior Female0:19:39"7.8 " 42473
CONVERY Ian#690Male 50+0:19:39"7.8 " 42531
JOHNSON Simon#207Senior Male0:19:42"7.8 " 426201
BLUNDELL Adam#208Senior Male0:19:42"7.8 " 427202
MACAULAY Rob#662Male 50+0:19:42"7.8 " 42832
TUFF Stephen#88Senior Male0:19:44"7.8 " 429203
ALDRED Mary#362Senior Female0:19:44"7.8 " 43074
BLACKWOOD Jeanette#31840-49 Female0:19:45"7.7 " 43115
COUTTS Alexander#200Senior Male0:19:46"7.7 " 432204
ADAMS Abigail#443Senior Female0:19:46"7.7 " 43375
HUNG Pui-Shan#364Senior Female0:19:48"7.7 " 43476
KEATING Ryan#262Senior Male0:19:52"7.7 " 435205
CAIN Gregory#770Male 50+0:19:53"7.7 " 43633
ELLIS Michael#674Male 50+0:19:54"7.7 " 43734
MOYLE Eddie#73340-49 Male0:19:54"7.7 " 43852
CLUGSTON Andrew#90Senior Male0:19:55"7.7 " 439206
SCOTT Trudy#473Senior Female0:19:56"7.7 " 44077
RODGERS Chris#61840-49 Male0:19:56"7.7 " 44153
GANNON Matt#93Senior Male0:19:59"7.7 " 442207
CARTER Dean#681Male 50+0:20:03"7.6 " 44335
SPITERI Maverick#64240-49 Male0:20:03"7.6 " 44454
ADAMS Courtney#379Senior Female0:20:05"7.6 " 44578
DIEDRICH Glenn#223Senior Male0:20:06"7.6 " 446208
JELLIS Peter#179Senior Male0:20:07"7.6 " 447209
STINEAR Melinda#482Senior Female0:20:07"7.6 " 44879
CLARKE Alecia#512Senior Female0:20:08"7.6 " 44980
LLOYD Greg#61640-49 Male0:20:08"7.6 " 45055
PETERSON Clare#493Senior Female0:20:11"7.6 " 45181
ALLEN Andrew#64640-49 Male0:20:12"7.6 " 45256
NICHOLAS Davin#229Senior Male0:20:13"7.6 " 453210
LEA Edwina#338Junior Female0:20:14"7.6 " 45422
BREMNER James#158Senior Male0:20:16"7.5 " 455211
EAVES Nick#63940-49 Male0:20:16"7.5 " 45657
BROPHY Clare#516Female 50+0:20:18"7.5 " 4577
CONN Simon#666Male 50+0:20:19"7.5 " 45836
SHANNON Adam#189Senior Male0:20:20"7.5 " 459212
METLIKOVEC Jane#508Senior Female0:20:20"7.5 " 46082
BRIGGS Stephen#75540-49 Male0:20:20"7.5 " 46158
DUDLEY Graeme#63240-49 Male0:20:21"7.5 " 46259
DALLINGER Brian#720Male 50+0:20:21"7.5 " 46337
SMITH Paul#685Male 50+0:20:22"7.5 " 46438
KENNEDY Gareth#3Senior Male0:20:23"7.5 " 465213
HOPKINS Barry#715Male 50+0:20:23"7.5 " 46639
COLE Phil#63040-49 Male0:20:23"7.5 " 46760
GORMAN Mark#71240-49 Male0:20:24"7.5 " 46861
REIDY Andrew#198Senior Male0:20:26"7.5 " 469214
MCINTOSH Cameron#125Senior Male0:20:27"7.5 " 470215
ANDREWS Kathryn#414Senior Female0:20:27"7.5 " 47183
PATKIN Kate#393Senior Female0:20:27"7.5 " 47284
TOBIAS Sean#65240-49 Male0:20:29"7.5 " 47362
SAFFIN Damian#251Senior Male0:20:30"7.5 " 474216
GREENER Joseph#130Senior Male0:20:34"7.4 " 475217
O'DONOHUE Josie#351Junior Female0:20:34"7.4 " 47623
BEAUMONT Esme#470Senior Female0:20:35"7.4 " 47785
SHACKELFORD Aaron#86Senior Male0:20:36"7.4 " 478218
TARQUINIO Sarah#486Senior Female0:20:36"7.4 " 47986
LAING Josh#247Senior Male0:20:37"7.4 " 480219
BROWN Karen#411Senior Female0:20:37"7.4 " 48187
MARSHALL Sarah#429Senior Female0:20:37"7.4 " 48288
WILLIAMS Matt#756Junior Male0:20:37"7.4 " 48330
WEBBER Neil#62840-49 Male0:20:38"7.4 " 48463
WILLIAMS Peter#72340-49 Male0:20:39"7.4 " 48564
GREENHALGH Paul#16Senior Male0:20:46"7.4 " 486220
MANNING Rebecca#461Senior Female0:20:46"7.4 " 48789
MCBAIN Simon#40Senior Male0:20:48"7.4 " 488221
MACARTNEY Aimmee#494Senior Female0:20:48"7.4 " 48990
CRAIG Mitch#100Senior Male0:20:49"7.3 " 490222
WEINER Sophie#452Junior Female0:20:50"7.3 " 49124
ORR Michele#32640-49 Female0:20:52"7.3 " 49216
MC CABE Patrick#186Senior Male0:20:53"7.3 " 493223
COLLIS Joel#264Senior Male0:20:54"7.3 " 494224
GARDNER Megan#355Senior Female0:20:55"7.3 " 49591
BEACH Rodney#191Senior Male0:21:03"7.3 " 496225
JACKA Ryan#235Senior Male0:21:05"7.3 " 497226
SMITHSON Scott#129Senior Male0:21:06"7.3 " 498227
ADKINS Sue#30440-49 Female0:21:15"7.2 " 49917
CANIL Daniel#145Senior Male0:21:17"7.2 " 500228
JACKMAN Angie#384Senior Female0:21:21"7.2 " 50192
DYNON Paul#71040-49 Male0:21:21"7.2 " 50265
COUTTS Greg#213Senior Male0:21:23"7.2 " 503229
BROWN Melanie#382Senior Female0:21:25"7.1 " 50493
ROSE Sally#383Senior Female0:21:25"7.1 " 50594
GRENVILLE Adnrea#48840-49 Female0:21:27"7.1 " 50618
JOHNSON Elouise#498Junior Female0:21:27"7.1 " 50725
DWYER Deanne#505Senior Female0:21:28"7.1 " 50895
SQUIRES Stewart#61940-49 Male0:21:30"7.1 " 50966
ARNOTT Grant#34Senior Male0:21:31"7.1 " 510230
TELIBURN Dieter#700Male 50+0:21:31"7.1 " 51140
SYME Michael Sy#693Male 50+0:21:34"7.1 " 51241
CRISPIN Amanda#757Senior Female0:21:37"7.1 " 51396
JOHNSON Gillian#49940-49 Female0:21:39"7.1 " 51419
MOULD Annie#367Senior Female0:21:42"7.1 " 51597
CRAIG Lucas#66Senior Male0:21:43"7.0 " 516231
KING Warwick#233Senior Male0:21:44"7.0 " 517232
TERRILL Wayne#77140-49 Male0:21:44"7.0 " 51867
VANDERSTAAY Colin#69640-49 Male0:21:46"7.0 " 51968
STEPHENS Kristy#501Senior Female0:21:48"7.0 " 52098
HERBERT Michael#62040-49 Male0:21:49"7.0 " 52169
ESNOUF John#663Male 50+0:21:50"7.0 " 52242
CARTER Verena#370Senior Female0:21:54"7.0 " 52399
HOLLINS Jenny#31940-49 Female0:21:55"7.0 " 52420
TYLER Faith#502Senior Female0:21:58"7.0 " 525100
PARTON Owen#101Senior Male0:22:00"7.0 " 526233
SAFFIN Meg#509Senior Female0:22:04"6.9 " 527101
GUPPY Joshua#165Senior Male0:22:08"6.9 " 528234
WEBBER Simone#31340-49 Female0:22:08"6.9 " 52921
ANGLIM Bernard#682Male 50+0:22:08"6.9 " 53043
FOOTE Kaitlin#349Junior Female0:22:12"6.9 " 53126
COUSINS Richard#64040-49 Male0:22:14"6.9 " 53270
WRIGHT Kate#395Senior Female0:22:16"6.9 " 533102
HOUSE Brian#74540-49 Male0:22:17"6.9 " 53471
LYNCH Nicholas#245Senior Male0:22:23"6.8 " 535235
LOVE Glen#119Senior Male0:22:34"6.8 " 536236
WING Rebecca#436Senior Female0:22:39"6.8 " 537103
ROBBINS Larissa#406Senior Female0:22:41"6.7 " 538104
GUPPY Isaac#732Junior Male0:22:45"6.7 " 53931
RODGERS Liam#601Junior Male0:22:51"6.7 " 54032
SCOTT Amelia#437Senior Female0:22:54"6.7 " 541105
KEWMING Robyn#335Female 50+0:22:55"6.7 " 5428
COUSINS Anne#32140-49 Female0:22:56"6.7 " 54322
GOONAN Bianca#413Senior Female0:22:57"6.7 " 544106
WALKER Christine#426Female 50+0:23:01"6.6 " 5459
RILEY Karen#392Senior Female0:23:12"6.6 " 546107
KUBALE Timothy#132Senior Male0:23:18"6.6 " 547237
PATON Wendy#337Female 50+0:23:21"6.6 " 54810
SHULVER Stephanie#439Senior Female0:23:24"6.5 " 549108
COOK Katie#407Senior Female0:23:30"6.5 " 550109
KOOLE Jerome#216Senior Male0:23:31"6.5 " 551238
JORDAN-HILL Christine#377Senior Female0:23:36"6.5 " 552110
NOLAN Stephen#691Male 50+0:23:47"6.4 " 55344
WYNNE Sheldon#65Senior Male0:23:50"6.4 " 554239
MORRISON Ben#81Senior Male0:23:53"6.4 " 555240
ONEIL Emma#43540-49 Female0:23:55"6.4 " 55623
ZAMBRANO RAMIRE Pablo#13Senior Male0:23:58"6.4 " 557241
HERRINGTON Suzie#31240-49 Female0:24:07"6.3 " 55824
EMMETT Niki#31440-49 Female0:24:11"6.3 " 55925
STANFIELD Monica#474Senior Female0:24:12"6.3 " 560111
DOUGHTY Jackie#30240-49 Female0:24:19"6.3 " 56126
HODGESON Sam#70940-49 Male0:24:21"6.3 " 56272
KOOLE Amelia#489Senior Female0:24:22"6.3 " 563112
ADAMS Murray#694Male 50+0:24:25"6.3 " 56445
HOSKING Robert#769Male 50+0:24:26"6.3 " 56546
JUSTER Ian#63740-49 Male0:24:27"6.3 " 56673
BLACKMAN Julie#390Senior Female0:24:29"6.2 " 567113
WILLIS Eddy#478Female 50+0:24:35"6.2 " 56811
PATERSON Debra#391Senior Female0:24:39"6.2 " 569114
JOHNSON Travis#2Senior Male0:24:45"6.2 " 570242
EGAN Holly#425Junior Female0:24:45"6.2 " 57127
SAY Misha#471Senior Female0:24:49"6.2 " 572115
MONAGHAN Helen#420Senior Female0:24:50"6.2 " 573116
HAYNE Sue#333Female 50+0:24:51"6.2 " 57412
BROWN Glenn#183Senior Male0:25:10"6.1 " 575243
FREEMAN Steve#70840-49 Male0:25:11"6.1 " 57674
HOPKINS Peter#714Male 50+0:25:12"6.1 " 57747
FEEHAN Michael#62Senior Male0:25:19"6.0 " 578244
CHAMBERS Ron#664Male 50+0:25:23"6.0 " 57948
BURNHAM Robert#661Male 50+0:25:30"6.0 " 58049
REEK George#703Male 50+0:25:36"6.0 " 58150
O'CONNELL Katherine#412Senior Female0:25:37"6.0 " 582117
CAMPBELL Courtney#55Senior Male0:26:11"5.8 " 583245
SEXTON Andy#95Senior Male0:26:11"5.8 " 584246
STRICKLETON Richard#105Senior Male0:26:11"5.8 " 585247
STELMACH Wanda#331Female 50+0:26:19"5.8 " 58613
WALSHE Michael#70740-49 Male0:26:33"5.8 " 58775
MC CABE Michael#740Male 50+0:26:39"5.7 " 58851
WYNNE Jason#79Senior Male0:26:41"5.7 " 589248
LOGAN Sarah#400Senior Female0:26:43"5.7 " 590118
NASH Rachel#401Senior Female0:26:44"5.7 " 591119
JONES Natalie#49740-49 Female0:26:46"5.7 " 59227
CICCONE Tina#50040-49 Female0:26:47"5.7 " 59328
O'DONOHUE Lesley#32440-49 Female0:27:12"5.6 " 59429
BROOMHALL Jenny#30540-49 Female0:28:17"5.4 " 59530
HORROCKS Mark#730Male 50+0:28:18"5.4 " 59652
MOULD Geoffrey#687Male 50+0:28:35"5.4 " 59753
MCLEAN Lee-Anne#380Senior Female0:28:40"5.3 " 598120
SEWELL Jill#329Female 50+0:28:48"5.3 " 59914
JONES Vicki#31040-49 Female0:29:01"5.3 " 60031
MCDONALD Penny#31140-49 Female0:29:01"5.3 " 60132
MCKAY Lesley#30740-49 Female0:29:05"5.3 " 60233
BOND Vivienne#32340-49 Female0:29:13"5.2 " 60334
MC IVOR Sonja#51940-49 Male0:29:21"5.2 " 60476
BOSWORTH Susan#465Senior Female0:29:24"5.2 " 605121
BEWLEY Rikki#424Female 50+0:30:02"5.1 " 60615
GLOVER Tom#45Senior Male0:30:35"5.0 " 607249
HEATHER Lian#422Senior Female0:30:42"5.0 " 608122
KONTOGOURIS Earlene#466Female 50+0:31:01"4.9 " 60916
BROPHY David#772Male 50+0:31:15"4.9 " 61054
JUCHNO Debbie#431Female 50+0:32:40"4.7 " 61117
BROPHY Vivienne#514Female 50+0:32:45"4.7 " 61218
GERMAIN Donna#47240-49 Female0:33:51"4.5 " 61335